Time;durP1;ratioP1;P1;durP2;ratioP2;P2;SDS_P1;SDS_P2;PMS_P1;PMS_P2;Temp;Humidity;BMP_temperature;BMP_pressure;BME280_temperature;BME280_humidity;BME280_pressure;Samples;Min_cycle;Max_cycle;Signal;HPM_P1;HPM_P2
2021/07/10 00:01:11;;;;;;;2.72;2.15;;;;;;;15.58;nan;100686.19;4986588;28;20412;-82
2021/07/10 00:03:39;;;;;;;9.88;1.98;;;;;;;15.54;nan;100687.22;4969505;28;20039;-78
2021/07/10 00:06:06;;;;;;;3.10;1.73;;;;;;;15.44;nan;100691.19;4951552;28;20073;-81
2021/07/10 00:08:33;;;;;;;2.65;2.13;;;;;;;15.47;nan;100688.44;4943855;28;20066;-80
2021/07/10 00:11:00;;;;;;;3.10;2.13;;;;;;;15.45;nan;100703.56;4954894;28;20051;-80
2021/07/10 00:13:27;;;;;;;5.63;2.22;;;;;;;15.35;nan;100702.22;4940208;28;20133;-80
2021/07/10 00:15:54;;;;;;;3.08;2.10;;;;;;;15.36;nan;100706.59;4962111;28;20062;-80
2021/07/10 00:18:21;;;;;;;3.40;2.30;;;;;;;15.35;nan;100712.84;4969843;28;20053;-81
2021/07/10 00:20:49;;;;;;;3.80;2.20;;;;;;;15.36;nan;100707.47;4942610;28;20665;-81
2021/07/10 00:23:16;;;;;;;2.63;2.08;;;;;;;15.36;nan;100704.81;4949688;28;20057;-79
2021/07/10 00:25:43;;;;;;;4.18;2.40;;;;;;;15.38;nan;100715.38;4963536;28;20167;-81
2021/07/10 00:28:10;;;;;;;2.33;2.13;;;;;;;15.38;nan;100700.28;4969516;28;20653;-80
2021/07/10 00:30:37;;;;;;;2.47;2.28;;;;;;;15.40;nan;100703.78;4948348;28;20047;-79
2021/07/10 00:33:04;;;;;;;2.75;1.90;;;;;;;15.35;nan;100705.72;4966624;28;20066;-81
2021/07/10 00:35:31;;;;;;;2.92;2.15;;;;;;;15.36;nan;100704.81;4964418;28;20935;-80
2021/07/10 00:37:58;;;;;;;3.15;2.00;;;;;;;15.38;nan;100696.75;4968069;28;20484;-80
2021/07/10 00:40:25;;;;;;;3.75;2.00;;;;;;;15.40;nan;100705.56;4966766;28;20074;-80
2021/07/10 00:42:52;;;;;;;2.92;1.95;;;;;;;15.34;nan;100711.13;4935998;28;20142;-81
2021/07/10 00:45:18;;;;;;;2.08;1.77;;;;;;;15.32;nan;100697.00;4949774;28;20129;-79
2021/07/10 00:47:45;;;;;;;3.10;1.95;;;;;;;15.39;nan;100701.16;4969820;28;20042;-80
2021/07/10 00:50:21;;;;;;;2.05;1.70;;;;;;;15.37;nan;100700.34;4966181;28;20035;-81
2021/07/10 00:52:48;;;;;;;2.25;1.80;;;;;;;15.32;nan;100705.88;4967235;28;20074;-83
2021/07/10 00:55:16;;;;;;;2.25;1.70;;;;;;;15.22;nan;100701.84;4966482;28;20515;-80
2021/07/10 00:57:44;;;;;;;2.50;2.00;;;;;;;15.24;nan;100705.28;4950733;28;20050;-80
2021/07/10 01:00:16;;;;;;;3.13;2.20;;;;;;;15.25;nan;100706.16;4967057;28;20415;-79
2021/07/10 01:02:44;;;;;;;2.15;1.77;;;;;;;15.25;nan;100708.81;4963959;28;20039;-80
2021/07/10 01:05:14;;;;;;;2.00;1.80;;;;;;;15.27;nan;100714.94;4966316;28;20054;-80
2021/07/10 01:07:41;;;;;;;2.47;1.95;;;;;;;15.26;nan;100716.75;4963683;28;20047;-80
2021/07/10 01:10:09;;;;;;;2.30;2.10;;;;;;;15.25;nan;100719.47;4949658;28;20043;-81
2021/07/10 01:12:40;;;;;;;2.88;2.10;;;;;;;15.25;nan;100714.16;4971828;28;20043;-80
2021/07/10 01:15:08;;;;;;;2.72;2.47;;;;;;;15.21;nan;100718.69;4964981;28;20666;-80
2021/07/10 01:17:36;;;;;;;2.60;2.40;;;;;;;15.20;nan;100715.19;4930511;28;20042;-80
2021/07/10 01:20:10;;;;;;;3.75;2.50;;;;;;;15.20;nan;100714.31;4967839;28;20805;-81
2021/07/10 01:22:41;;;;;;;2.67;2.38;;;;;;;15.17;nan;100715.31;4929319;28;20066;-80
2021/07/10 01:25:11;;;;;;;2.90;2.60;;;;;;;15.11;nan;100720.00;4967081;28;20504;-80
2021/07/10 01:27:38;;;;;;;3.60;2.80;;;;;;;15.10;nan;100719.13;4966806;28;20503;-80
2021/07/10 01:30:11;;;;;;;3.05;2.08;;;;;;;14.97;nan;100717.00;4966761;28;20043;-79
2021/07/10 01:32:39;;;;;;;3.07;2.47;;;;;;;15.00;nan;100719.53;4966843;28;20067;-79
2021/07/10 01:35:08;;;;;;;3.70;2.72;;;;;;;15.00;nan;100725.72;4949899;28;20101;-81
2021/07/10 01:37:36;;;;;;;3.90;2.78;;;;;;;15.01;nan;100727.47;4965658;28;20047;-81
2021/07/10 01:40:05;;;;;;;3.33;2.45;;;;;;;14.97;nan;100725.84;4965504;28;20047;-81
2021/07/10 01:42:32;;;;;;;2.95;2.65;;;;;;;14.93;nan;100721.56;4951169;28;20129;-79
2021/07/10 01:45:00;;;;;;;3.03;2.70;;;;;;;14.83;nan;100722.84;4948985;28;20053;-80
2021/07/10 01:47:26;;;;;;;3.50;2.53;;;;;;;14.90;nan;100724.34;4947629;28;20113;-81
2021/07/10 01:49:53;;;;;;;4.18;2.63;;;;;;;14.86;nan;100726.22;4950175;28;20050;-79
2021/07/10 01:52:20;;;;;;;4.10;2.90;;;;;;;14.81;nan;100724.69;4949581;28;20178;-80
2021/07/10 01:54:47;;;;;;;3.55;2.70;;;;;;;14.85;nan;100732.47;4950821;28;20039;-81
2021/07/10 01:57:14;;;;;;;4.22;3.10;;;;;;;14.88;nan;100735.03;4932680;28;20484;-79
2021/07/10 01:59:41;;;;;;;3.85;3.03;;;;;;;14.79;nan;100727.38;4966058;28;20065;-79
2021/07/10 02:02:08;;;;;;;5.18;3.47;;;;;;;14.86;nan;100733.34;4963553;28;20536;-80
2021/07/10 02:04:45;;;;;;;5.72;3.13;;;;;;;14.89;nan;100735.91;4967245;28;20050;-79
2021/07/10 02:07:13;;;;;;;5.05;3.65;;;;;;;14.94;nan;100731.28;4945432;28;20039;-79
2021/07/10 02:09:40;;;;;;;4.22;3.40;;;;;;;14.88;nan;100727.06;4950334;28;20058;-80
2021/07/10 02:12:09;;;;;;;3.55;3.22;;;;;;;14.95;nan;100727.69;4949014;28;20074;-80
2021/07/10 02:14:36;;;;;;;3.30;3.00;;;;;;;14.98;nan;100730.25;4965656;28;20047;-79
2021/07/10 02:17:03;;;;;;;3.65;3.10;;;;;;;15.03;nan;100720.28;4948942;28;20050;-81
2021/07/10 02:19:33;;;;;;;3.78;2.70;;;;;;;15.00;nan;100720.41;4950203;28;20137;-80
2021/07/10 02:22:01;;;;;;;3.42;2.67;;;;;;;15.01;nan;100718.59;4948313;28;20066;-80
2021/07/10 02:24:28;;;;;;;4.28;3.38;;;;;;;15.03;nan;100727.41;4966887;28;20046;-79
2021/07/10 02:26:54;;;;;;;3.90;3.03;;;;;;;15.00;nan;100720.41;4931219;28;20788;-79
2021/07/10 02:29:21;;;;;;;3.58;3.28;;;;;;;15.05;nan;100713.13;4965529;28;20582;-79
2021/07/10 02:31:48;;;;;;;3.97;3.33;;;;;;;15.06;nan;100720.19;4926601;28;20039;-80
2021/07/10 02:34:15;;;;;;;3.75;3.25;;;;;;;15.12;nan;100714.59;4982295;28;20039;-79
2021/07/10 02:36:43;;;;;;;3.20;2.90;;;;;;;15.10;nan;100718.25;4948926;28;20134;-80
2021/07/10 02:39:10;;;;;;;5.50;3.45;;;;;;;15.09;nan;100714.72;4949559;28;20138;-79
2021/07/10 02:41:38;;;;;;;3.30;3.00;;;;;;;15.15;nan;100713.63;4964585;28;20472;-80
2021/07/10 02:44:05;;;;;;;4.22;3.13;;;;;;;15.10;nan;100705.81;4965988;28;20042;-79
2021/07/10 02:46:33;;;;;;;4.30;3.75;;;;;;;15.16;nan;100707.38;4965785;28;20505;-80
2021/07/10 02:49:00;;;;;;;4.13;3.63;;;;;;;15.17;nan;100709.13;4963033;28;20130;-79
2021/07/10 02:51:27;;;;;;;4.45;3.35;;;;;;;15.17;nan;100707.31;4934508;28;20630;-81
2021/07/10 02:53:55;;;;;;;4.18;3.78;;;;;;;15.21;nan;100700.06;4968897;28;20050;-79
2021/07/10 02:56:23;;;;;;;5.95;3.75;;;;;;;15.11;nan;100704.88;4951998;28;20512;-81
2021/07/10 02:58:50;;;;;;;4.93;3.72;;;;;;;15.20;nan;100701.88;4968676;28;20046;-80
2021/07/10 03:01:18;;;;;;;4.68;4.10;;;;;;;15.24;nan;100699.97;4950806;28;20046;-81
2021/07/10 03:03:46;;;;;;;4.65;4.15;;;;;;;15.24;nan;100702.63;4985616;28;20038;-80
2021/07/10 03:06:12;;;;;;;5.05;4.20;;;;;;;15.30;nan;100696.19;4968503;28;20047;-80
2021/07/10 03:08:39;;;;;;;7.90;5.20;;;;;;;15.34;nan;100697.81;4951604;28;20087;-79
2021/07/10 03:11:07;;;;;;;7.38;5.43;;;;;;;15.34;nan;100695.16;4952020;28;20038;-81
2021/07/10 03:13:33;;;;;;;6.55;5.30;;;;;;;15.27;nan;100691.84;4939824;28;20524;-80
2021/07/10 03:16:02;;;;;;;8.60;5.95;;;;;;;15.32;nan;100699.69;4971317;28;20047;-80
2021/07/10 03:18:29;;;;;;;7.93;6.65;;;;;;;15.34;nan;100695.16;4987985;28;20041;-80
2021/07/10 03:20:56;;;;;;;7.50;6.70;;;;;;;15.32;nan;100691.69;4955228;28;20038;-80
2021/07/10 03:23:23;;;;;;;8.18;6.75;;;;;;;15.32;nan;100700.53;4961732;28;20054;-80
2021/07/10 03:25:51;;;;;;;7.20;6.50;;;;;;;15.27;nan;100706.97;4972176;28;20057;-81
2021/07/10 03:28:19;;;;;;;8.02;6.43;;;;;;;15.26;nan;100702.56;4972213;28;20457;-81
2021/07/10 03:30:50;;;;;;;8.75;7.22;;;;;;;15.27;nan;100702.50;4955777;28;20039;-81
2021/07/10 03:33:19;;;;;;;8.43;6.65;;;;;;;15.28;nan;100698.91;4986999;28;20046;-80
2021/07/10 03:35:47;;;;;;;7.60;6.57;;;;;;;15.30;nan;100693.53;4952898;28;20054;-80
2021/07/10 03:38:14;;;;;;;9.60;6.72;;;;;;;15.28;nan;100695.38;4969857;28;20034;-80
2021/07/10 03:40:41;;;;;;;8.10;6.55;;;;;;;15.24;nan;100702.63;4954115;28;20042;-82
2021/07/10 03:43:08;;;;;;;7.80;6.53;;;;;;;15.22;nan;100701.84;4939991;28;20054;-82
2021/07/10 03:45:35;;;;;;;8.50;6.47;;;;;;;15.17;nan;100699.34;4953050;28;20050;-82
2021/07/10 03:48:03;;;;;;;8.05;6.18;;;;;;;15.06;nan;100706.88;4969687;28;20094;-81
2021/07/10 03:50:30;;;;;;;8.82;6.47;;;;;;;15.17;nan;100714.44;4953989;28;20089;-80
2021/07/10 03:52:56;;;;;;;8.68;6.68;;;;;;;15.16;nan;100710.91;4990346;28;20146;-81
2021/07/10 03:55:27;;;;;;;7.85;6.63;;;;;;;15.19;nan;100715.25;4953071;28;20159;-82
2021/07/10 03:57:54;;;;;;;8.60;7.70;;;;;;;15.16;nan;100708.25;4969903;28;20047;-81
2021/07/10 04:00:22;;;;;;;9.20;6.78;;;;;;;15.18;nan;100719.69;4951974;28;20185;-81
2021/07/10 04:02:49;;;;;;;11.35;7.50;;;;;;;15.18;nan;100719.69;4955134;28;20405;-81
2021/07/10 04:05:16;;;;;;;9.30;7.80;;;;;;;15.15;nan;100725.16;4969941;28;20034;-81
2021/07/10 04:07:43;;;;;;;10.32;7.88;;;;;;;15.13;nan;100729.66;4969436;28;20050;-80
2021/07/10 04:10:14;;;;;;;10.00;7.93;;;;;;;15.17;nan;100725.94;4968790;28;20055;-81
2021/07/10 04:12:42;;;;;;;11.65;8.52;;;;;;;15.18;nan;100726.81;4970158;28;20043;-80
2021/07/10 04:15:11;;;;;;;11.38;9.25;;;;;;;15.19;nan;100742.72;4970179;28;20176;-80
2021/07/10 04:17:38;;;;;;;11.23;9.57;;;;;;;15.21;nan;100742.66;4951963;28;20057;-81
2021/07/10 04:20:08;;;;;;;13.52;9.90;;;;;;;15.23;nan;100753.28;4952467;28;21561;-81
2021/07/10 04:22:36;;;;;;;14.30;10.73;;;;;;;15.26;nan;100743.34;4966449;28;20679;-81
2021/07/10 04:25:09;;;;;;;15.00;9.93;;;;;;;15.33;nan;100755.50;4952705;28;20046;-80
2021/07/10 04:27:38;;;;;;;10.13;9.07;;;;;;;15.33;nan;100759.97;4983472;28;20118;-80
2021/07/10 04:30:07;;;;;;;13.75;10.27;;;;;;;15.34;nan;100762.56;4969300;28;20043;-80
2021/07/10 04:32:34;;;;;;;14.60;10.52;;;;;;;15.40;nan;100764.13;4952986;28;20066;-80
2021/07/10 04:35:01;;;;;;;13.95;10.73;;;;;;;15.44;nan;100773.72;4966615;28;20069;-80
2021/07/10 04:37:28;;;;;;;15.30;11.00;;;;;;;15.45;nan;100780.78;4951918;28;20039;-81
2021/07/10 04:39:54;;;;;;;13.68;10.75;;;;;;;15.47;nan;100785.13;4952154;28;20043;-80
2021/07/10 04:42:23;;;;;;;16.25;11.70;;;;;;;15.47;nan;100779.81;4969115;28;20586;-80
2021/07/10 04:44:51;;;;;;;13.30;10.82;;;;;;;15.37;nan;100790.84;4937578;28;20081;-82
2021/07/10 04:47:18;;;;;;;16.15;11.93;;;;;;;15.43;nan;100786.16;4949842;28;20047;-81
2021/07/10 04:49:45;;;;;;;17.20;12.38;;;;;;;15.53;nan;100789.34;4936552;28;20058;-81
2021/07/10 04:52:12;;;;;;;13.73;11.02;;;;;;;15.48;nan;100788.66;4965921;28;20250;-81
2021/07/10 04:54:39;;;;;;;17.08;11.77;;;;;;;15.52;nan;100797.41;4985965;28;20101;-81
2021/07/10 04:57:06;;;;;;;13.75;11.18;;;;;;;15.56;nan;100793.69;4966620;28;20045;-81
2021/07/10 04:59:32;;;;;;;15.85;11.80;;;;;;;15.58;nan;100803.34;4952866;28;20066;-81
2021/07/10 05:01:59;;;;;;;16.90;12.18;;;;;;;15.59;nan;100799.75;4967944;28;20074;-81
2021/07/10 05:04:26;;;;;;;15.07;12.05;;;;;;;15.66;nan;100808.41;4967139;28;20058;-81
2021/07/10 05:06:55;;;;;;;15.27;10.98;;;;;;;15.67;nan;100807.50;4966629;28;20133;-81
2021/07/10 05:09:23;;;;;;;13.57;10.23;;;;;;;15.72;nan;100811.72;4952169;28;20137;-80
2021/07/10 05:11:50;;;;;;;12.93;10.63;;;;;;;15.73;nan;100813.44;4969402;28;20069;-82
2021/07/10 05:14:17;;;;;;;13.27;10.75;;;;;;;15.77;nan;100824.84;4954786;28;20077;-82
2021/07/10 05:16:44;;;;;;;15.73;11.32;;;;;;;15.86;nan;100827.13;4949989;28;20639;-81
2021/07/10 05:19:11;;;;;;;15.05;10.65;;;;;;;15.77;nan;100820.38;4949361;28;20057;-80
2021/07/10 05:21:37;;;;;;;12.82;10.00;;;;;;;15.80;nan;100819.38;4949541;28;20432;-81
2021/07/10 05:24:10;;;;;;;12.50;9.70;;;;;;;15.93;nan;100827.78;4950753;28;20053;-81
2021/07/10 05:26:36;;;;;;;11.60;9.30;;;;;;;15.97;nan;100826.69;4982151;28;20039;-80
2021/07/10 05:29:05;;;;;;;12.13;9.23;;;;;;;15.96;nan;100836.50;4968597;28;20053;-81
2021/07/10 05:31:32;;;;;;;12.38;8.45;;;;;;;15.70;nan;100829.53;4951337;28;20035;-82
2021/07/10 05:33:59;;;;;;;10.73;8.27;;;;;;;15.86;nan;100844.91;4953534;28;20035;-81
2021/07/10 05:36:26;;;;;;;10.93;8.68;;;;;;;15.95;nan;100842.75;4967764;28;20043;-82
2021/07/10 05:38:53;;;;;;;11.43;9.50;;;;;;;16.04;nan;100846.84;4982701;28;20046;-82
2021/07/10 05:41:22;;;;;;;11.27;9.48;;;;;;;15.98;nan;100840.00;4968270;28;21630;-80
2021/07/10 05:43:50;;;;;;;11.77;9.10;;;;;;;16.05;nan;100851.25;4962090;28;20145;-79
2021/07/10 05:46:16;;;;;;;12.65;8.95;;;;;;;16.03;nan;100850.44;4968549;28;20420;-81
2021/07/10 05:48:43;;;;;;;13.98;9.98;;;;;;;16.04;nan;100849.50;4969378;28;20503;-82
2021/07/10 05:51:10;;;;;;;12.00;9.35;;;;;;;16.09;nan;100847.53;4950685;28;20046;-82
2021/07/10 05:53:37;;;;;;;14.77;11.13;;;;;;;16.02;nan;100852.25;4973603;28;20046;-82
2021/07/10 05:56:04;;;;;;;13.52;10.38;;;;;;;16.10;nan;100853.75;4955748;28;20177;-81
2021/07/10 05:58:30;;;;;;;14.32;10.35;;;;;;;16.13;nan;100859.81;4969328;28;20432;-82
2021/07/10 06:00:57;;;;;;;13.60;10.82;;;;;;;16.14;nan;100856.22;4966888;28;20053;-82
2021/07/10 06:03:26;;;;;;;13.75;9.93;;;;;;;16.14;nan;100856.22;4968407;28;20048;-82
2021/07/10 06:05:53;;;;;;;13.68;9.50;;;;;;;16.18;nan;100864.97;4954742;28;20042;-81
2021/07/10 06:08:20;;;;;;;12.63;9.27;;;;;;;16.23;nan;100857.66;4968661;28;20074;-82
2021/07/10 06:10:47;;;;;;;12.68;9.65;;;;;;;16.17;nan;100861.44;4934462;28;20062;-84
2021/07/10 06:13:14;;;;;;;12.68;9.40;;;;;;;16.24;nan;100857.59;4969731;28;20622;-82
2021/07/10 06:15:42;;;;;;;15.90;10.35;;;;;;;16.26;nan;100860.19;4952174;28;20047;-85
2021/07/10 06:18:10;;;;;;;12.10;9.95;;;;;;;16.26;nan;100861.06;4938926;28;20046;-83
2021/07/10 06:20:40;;;;;;;12.15;9.20;;;;;;;16.21;nan;100864.84;4977117;28;20042;-84
2021/07/10 06:23:07;;;;;;;11.43;9.13;;;;;;;16.25;nan;100870.00;4974267;28;20070;-84
2021/07/10 06:25:36;;;;;;;11.43;8.75;;;;;;;16.33;nan;100869.69;4968820;28;20077;-83
2021/07/10 06:28:05;;;;;;;14.27;10.65;;;;;;;16.38;nan;100865.00;4971125;28;20109;-83
2021/07/10 06:30:32;;;;;;;13.73;9.90;;;;;;;16.46;nan;100870.91;4968669;28;20515;-85
2021/07/10 06:33:00;;;;;;;12.40;9.63;;;;;;;16.50;nan;100877.00;4941841;28;20666;-82
2021/07/10 06:35:27;;;;;;;12.60;9.57;;;;;;;16.55;nan;100869.66;4955467;28;20038;-85
2021/07/10 06:37:53;;;;;;;12.90;8.98;;;;;;;16.64;nan;100868.38;4957273;28;20042;-84
2021/07/10 06:40:20;;;;;;;13.15;9.45;;;;;;;16.65;nan;100875.47;4971052;28;20078;-83
2021/07/10 06:42:47;;;;;;;12.45;8.75;;;;;;;16.79;nan;100871.31;4966329;28;20032;-82
2021/07/10 06:45:16;;;;;;;16.73;9.63;;;;;;;16.81;nan;100868.56;4952678;28;20539;-83
2021/07/10 06:47:43;;;;;;;11.05;9.13;;;;;;;16.83;nan;100872.06;4954376;28;20043;-81
2021/07/10 06:50:11;;;;;;;13.48;8.93;;;;;;;16.89;nan;100877.13;4962318;28;20047;-85
2021/07/10 06:52:39;;;;;;;11.65;9.40;;;;;;;16.89;nan;100882.44;4972503;28;20051;-84
2021/07/10 06:55:07;;;;;;;14.00;9.82;;;;;;;16.89;nan;100883.31;4959063;28;20039;-83
2021/07/10 06:57:34;;;;;;;14.07;9.90;;;;;;;16.96;nan;100878.59;4964756;28;20054;-84
2021/07/10 07:00:04;;;;;;;11.18;8.02;;;;;;;16.91;nan;100882.41;4961471;28;20158;-82
2021/07/10 07:02:31;;;;;;;11.48;8.10;;;;;;;16.89;nan;100883.31;4957333;28;20687;-85
2021/07/10 07:04:58;;;;;;;12.75;8.98;;;;;;;16.88;nan;100875.38;4957476;28;21733;-86
2021/07/10 07:07:24;;;;;;;12.98;8.63;;;;;;;16.88;nan;100872.72;4958659;28;20456;-85
2021/07/10 07:09:51;;;;;;;11.73;8.50;;;;;;;16.83;nan;100886.28;4957127;28;20822;-84
2021/07/10 07:12:18;;;;;;;11.63;8.55;;;;;;;16.77;nan;100888.31;4973589;28;20039;-83
2021/07/10 07:14:44;;;;;;;12.73;9.20;;;;;;;16.70;nan;100881.50;4963168;28;20042;-85
2021/07/10 07:17:15;;;;;;;13.90;9.68;;;;;;;16.65;nan;100881.69;4945556;28;20133;-85
2021/07/10 07:19:41;;;;;;;15.80;12.18;;;;;;;16.66;nan;100882.56;4973366;28;20042;-83
2021/07/10 07:22:08;;;;;;;16.25;12.60;;;;;;;16.60;nan;100881.00;4980948;28;20038;-85
2021/07/10 07:24:35;;;;;;;14.35;10.30;;;;;;;16.64;nan;100892.41;4969294;28;20072;-86
2021/07/10 07:27:02;;;;;;;13.00;9.68;;;;;;;16.56;nan;100895.38;4956183;28;20054;-84
2021/07/10 07:29:29;;;;;;;14.23;9.45;;;;;;;16.54;nan;100890.13;4989120;28;20095;-81
2021/07/10 07:31:56;;;;;;;13.38;9.10;;;;;;;16.53;nan;100903.53;4985938;28;20105;-83
2021/07/10 07:34:23;;;;;;;13.20;10.15;;;;;;;16.62;nan;100900.47;4956091;28;20078;-81
2021/07/10 07:36:50;;;;;;;15.23;10.82;;;;;;;16.63;nan;100896.88;4971462;28;20039;-80
2021/07/10 07:39:16;;;;;;;13.00;9.05;;;;;;;16.56;nan;100906.03;4972793;28;20065;-84
2021/07/10 07:41:45;;;;;;;19.77;16.30;;;;;;;16.65;nan;100902.13;4954201;28;20039;-82
2021/07/10 07:44:12;;;;;;;15.60;12.02;;;;;;;16.70;nan;100903.72;4942147;28;20035;-83
2021/07/10 07:46:39;;;;;;;19.13;13.75;;;;;;;16.83;nan;100899.63;4972717;28;20112;-80
2021/07/10 07:49:06;;;;;;;125.07;71.80;;;;;;;16.86;nan;100899.47;4937242;29;20047;-82
2021/07/10 07:51:33;;;;;;;168.82;114.55;;;;;;;16.89;nan;100896.66;4954066;28;20066;-82
2021/07/10 07:54:00;;;;;;;24.27;20.25;;;;;;;16.97;nan;100895.47;4975282;28;20126;-83
2021/07/10 07:56:26;;;;;;;14.63;10.77;;;;;;;16.99;nan;100897.16;4972211;28;20074;-82
2021/07/10 07:58:53;;;;;;;15.50;11.73;;;;;;;17.04;nan;100902.28;4956868;28;20051;-82
2021/07/10 08:01:20;;;;;;;15.85;10.23;;;;;;;17.03;nan;100913.91;4956802;28;20043;-80
2021/07/10 08:03:48;;;;;;;13.77;9.57;;;;;;;17.05;nan;100915.56;4957284;28;20524;-84
2021/07/10 08:06:14;;;;;;;11.13;9.45;;;;;;;16.98;nan;100915.88;4939909;28;20504;-83
2021/07/10 08:08:41;;;;;;;11.30;9.68;;;;;;;16.97;nan;100916.81;4973153;28;20038;-82
2021/07/10 08:11:11;;;;;;;13.02;9.35;;;;;;;17.00;nan;100920.25;4971843;28;20043;-82
2021/07/10 08:13:39;;;;;;;14.52;11.05;;;;;;;17.02;nan;100920.19;4953335;29;20063;-80
2021/07/10 08:16:10;;;;;;;12.48;10.00;;;;;;;16.97;nan;100925.69;4948928;28;20093;-82
2021/07/10 08:18:37;;;;;;;16.02;9.85;;;;;;;17.00;nan;100925.59;4938079;28;20071;-84
2021/07/10 08:21:04;;;;;;;14.55;9.98;;;;;;;16.92;nan;100929.50;4956226;28;20051;-80
2021/07/10 08:23:31;;;;;;;14.48;10.45;;;;;;;16.83;nan;100942.31;4956540;28;20456;-80
2021/07/10 08:25:58;;;;;;;14.63;11.27;;;;;;;16.81;nan;100948.63;4987532;28;20401;-83
2021/07/10 08:28:25;;;;;;;15.18;11.32;;;;;;;16.84;nan;100946.72;4956993;28;20419;-83
2021/07/10 08:30:53;;;;;;;16.88;12.43;;;;;;;16.79;nan;100954.03;4943690;28;20063;-84
2021/07/10 08:33:19;;;;;;;19.73;12.95;;;;;;;16.73;nan;100951.63;4943107;28;20051;-87
2021/07/10 08:35:46;;;;;;;16.55;11.20;;;;;;;16.80;nan;100950.41;4955403;28;20055;-80
2021/07/10 08:38:13;;;;;;;16.63;11.77;;;;;;;16.70;nan;100957.06;4955572;28;20047;-84
2021/07/10 08:40:40;;;;;;;14.90;10.35;;;;;;;16.72;nan;100947.19;4933948;28;20085;-84
2021/07/10 08:43:07;;;;;;;16.25;11.20;;;;;;;16.70;nan;100959.75;4980052;28;20042;-87
2021/07/10 08:45:35;;;;;;;14.98;9.80;;;;;;;16.74;nan;100957.84;4953318;28;20210;-86
2021/07/10 08:48:03;;;;;;;14.38;11.40;;;;;;;16.71;nan;100963.28;4973017;28;20429;-87
2021/07/10 08:50:31;;;;;;;12.95;10.15;;;;;;;16.55;nan;100963.88;4955017;28;20051;-87
2021/07/10 08:52:58;;;;;;;16.35;10.73;;;;;;;16.72;nan;100978.34;4957015;28;20035;-85
2021/07/10 08:55:25;;;;;;;18.00;11.73;;;;;;;16.65;nan;100964.38;4956510;28;20074;-82
2021/07/10 08:57:55;;;;;;;17.30;12.35;;;;;;;16.56;nan;100967.41;4957729;28;20047;-83
2021/07/10 09:00:35;;;;;;;18.88;12.27;;;;;;;16.53;nan;100970.19;4955921;28;20134;-82
2021/07/10 09:03:04;;;;;;;16.42;11.23;;;;;;;16.50;nan;100975.66;4974799;28;20071;-82
2021/07/10 09:05:30;;;;;;;14.27;11.02;;;;;;;16.52;nan;100981.81;4937203;29;20082;-83
2021/07/10 09:08:22;;;;;;;19.23;12.55;;;;;;;16.42;nan;100977.78;4979859;28;20061;-83
2021/07/10 09:10:56;;;;;;;17.30;12.20;;;;;;;16.45;nan;100972.31;4971909;28;20038;-82
2021/07/10 09:13:48;;;;;;;19.42;12.32;;;;;;;16.40;nan;100976.97;4968524;28;20043;-86
2021/07/10 09:16:17;;;;;;;18.92;12.50;;;;;;;16.39;nan;100981.41;4973823;28;20518;-84
2021/07/10 09:18:50;;;;;;;19.23;12.15;;;;;;;16.41;nan;100981.38;4960204;28;20074;-86
2021/07/10 09:21:50;;;;;;;18.90;11.90;;;;;;;16.46;nan;100980.22;4973450;28;20051;-83
2021/07/10 09:24:33;;;;;;;15.82;11.55;;;;;;;16.50;nan;100986.34;4960439;28;21754;-82
2021/07/10 09:27:08;;;;;;;17.77;11.02;;;;;;;16.55;nan;100987.00;4971964;28;20047;-83
2021/07/10 09:29:40;;;;;;;18.17;11.23;;;;;;;16.51;nan;100980.94;4978017;28;20658;-86
2021/07/10 09:32:16;;;;;;;15.65;11.25;;;;;;;16.63;nan;100990.22;4969905;28;20081;-84
2021/07/10 09:34:49;;;;;;;47.17;34.92;;;;;;;16.58;nan;100978.91;4972500;28;20054;-83
2021/07/10 09:37:24;;;;;;;18.40;12.35;;;;;;;16.62;nan;100980.50;4987761;28;20038;-84
2021/07/10 09:40:10;;;;;;;14.15;10.63;;;;;;;16.73;nan;100982.75;4963917;28;20035;-84
2021/07/10 09:42:42;;;;;;;17.17;11.82;;;;;;;16.80;nan;100986.91;4971743;28;20042;-86
2021/07/10 09:45:21;;;;;;;16.10;11.18;;;;;;;16.93;nan;100981.94;4956414;28;20043;-84
2021/07/10 09:47:49;;;;;;;15.55;11.63;;;;;;;17.14;nan;100997.91;4973454;28;20030;-83
2021/07/10 09:50:19;;;;;;;11.45;10.25;;;;;;;17.32;nan;100993.63;4971543;28;20071;-81
2021/07/10 09:52:45;;;;;;;14.68;9.77;;;;;;;17.39;nan;100995.06;4949042;28;20420;-82
2021/07/10 09:55:14;;;;;;;14.68;9.60;;;;;;;17.57;nan;100997.88;4959222;28;20042;-82
2021/07/10 09:57:45;;;;;;;13.02;10.00;;;;;;;17.71;nan;101006.19;4942162;29;20058;-82
2021/07/10 10:00:13;;;;;;;11.75;9.02;;;;;;;17.57;nan;100996.09;4966044;28;20043;-81
2021/07/10 10:02:45;;;;;;;13.48;10.20;;;;;;;17.65;nan;101006.41;4971656;28;20039;-83
2021/07/10 10:05:17;;;;;;;13.07;10.65;;;;;;;17.68;nan;101001.81;4958557;28;20043;-85
2021/07/10 10:07:45;;;;;;;14.98;11.43;;;;;;;17.57;nan;101003.22;4973984;28;20047;-84
2021/07/10 10:10:20;;;;;;;12.70;9.43;;;;;;;17.68;nan;100995.63;4958186;28;20214;-83
2021/07/10 10:13:14;;;;;;;12.90;9.13;;;;;;;17.75;nan;101004.25;4933099;28;20217;-83
2021/07/10 10:15:46;;;;;;;13.75;10.93;;;;;;;17.83;nan;101002.13;4938122;28;20491;-82
2021/07/10 10:18:15;;;;;;;14.20;10.38;;;;;;;17.84;nan;101001.19;4972855;28;20111;-82
2021/07/10 10:20:43;;;;;;;13.20;9.60;;;;;;;17.87;nan;101006.38;4958037;28;20043;-83
2021/07/10 10:23:11;;;;;;;14.35;8.98;;;;;;;17.96;nan;101008.63;4967549;28;20046;-83
2021/07/10 10:25:39;;;;;;;11.77;9.13;;;;;;;18.14;nan;101002.44;4959749;28;20093;-85
2021/07/10 10:28:08;;;;;;;12.48;8.68;;;;;;;18.33;nan;100998.88;4996445;28;20649;-82
2021/07/10 10:30:35;;;;;;;11.95;9.32;;;;;;;18.61;nan;100995.78;4979567;28;20077;-83
2021/07/10 10:33:02;;;;;;;12.80;9.27;;;;;;;18.80;nan;100999.31;4970851;28;20094;-84
2021/07/10 10:35:29;;;;;;;14.15;8.70;;;;;;;19.09;nan;101000.56;4959065;28;20042;-84
2021/07/10 10:37:56;;;;;;;12.10;8.35;;;;;;;19.40;nan;100997.16;4972324;28;20043;-83
2021/07/10 10:40:25;;;;;;;9.85;7.97;;;;;;;19.52;nan;101004.59;4976373;28;20581;-84
2021/07/10 10:42:55;;;;;;;10.50;8.20;;;;;;;19.72;nan;101008.91;4959312;28;20038;-85
2021/07/10 10:45:34;;;;;;;10.52;7.82;;;;;;;19.71;nan;101004.50;4959400;28;20049;-86
2021/07/10 10:48:02;;;;;;;9.52;7.63;;;;;;;19.74;nan;101009.69;4974950;28;20055;-84
2021/07/10 10:50:34;;;;;;;8.70;7.57;;;;;;;19.69;nan;101001.06;4993569;28;20631;-87
2021/07/10 10:53:02;;;;;;;11.35;8.23;;;;;;;19.67;nan;101011.84;4962551;28;20563;-86
2021/07/10 10:55:30;;;;;;;9.45;6.93;;;;;;;19.57;nan;101009.72;4948547;28;20518;-84
2021/07/10 10:57:58;;;;;;;8.48;7.05;;;;;;;19.84;nan;101007.38;4957344;29;20051;-84
2021/07/10 11:00:24;;;;;;;10.20;7.70;;;;;;;20.04;nan;101012.56;4955201;28;20138;-85
2021/07/10 11:02:54;;;;;;;7.88;6.68;;;;;;;19.96;nan;101012.09;4973022;28;20635;-86
2021/07/10 11:05:50;;;;;;;9.27;7.63;;;;;;;20.12;nan;101009.47;5042496;23;20135;-83
2021/07/10 11:08:22;;;;;;;8.57;6.63;;;;;;;20.19;nan;101010.88;4976359;28;20056;-85
2021/07/10 11:10:58;;;;;;;8.05;6.97;;;;;;;20.25;nan;101008.69;4958932;28;20034;-83
2021/07/10 11:13:44;;;;;;;8.18;6.40;;;;;;;20.37;nan;101008.97;4961508;28;20047;-87
2021/07/10 11:16:17;;;;;;;9.48;8.45;;;;;;;20.39;nan;101018.66;4974400;28;20042;-85
2021/07/10 11:19:00;;;;;;;8.52;7.40;;;;;;;20.49;nan;101006.50;4987468;28;20505;-89
2021/07/10 11:21:38;;;;;;;8.57;6.32;;;;;;;20.69;nan;101005.38;4959175;28;20407;-88
2021/07/10 11:26:55;;;;;;;7.75;6.18;;;;;;;21.19;nan;101008.75;4974159;28;20056;-85
2021/07/10 11:29:23;;;;;;;8.85;6.40;;;;;;;21.46;nan;100996.41;4965549;28;20039;-83
2021/07/10 11:31:54;;;;;;;6.82;5.57;;;;;;;21.50;nan;101000.63;4968488;28;20039;-85
2021/07/10 11:34:33;;;;;;;5.55;4.93;;;;;;;21.72;nan;101000.19;4947971;28;20050;-81
2021/07/10 11:37:12;;;;;;;7.53;5.65;;;;;;;21.79;nan;100992.63;4955283;28;20050;-82
2021/07/10 11:39:52;;;;;;;6.82;5.35;;;;;;;21.66;nan;101005.94;4943474;28;20283;-84
2021/07/10 11:42:37;;;;;;;6.43;5.45;;;;;;;21.30;nan;101001.84;4963263;28;20641;-85
2021/07/10 11:45:12;;;;;;;7.85;5.88;;;;;;;20.84;nan;101008.13;4937746;28;20057;-84